sensor_id;sensor_type;location;lat;lon;timestamp;P1;durP1;ratioP1;P2;durP2;ratioP2
54125;SDS011;40360;52.992;6.796;2023-04-01T00:02:07;10.82;;;7.85;;
54125;SDS011;40360;52.992;6.796;2023-04-01T00:04:33;12.18;;;8.68;;
54125;SDS011;40360;52.992;6.796;2023-04-01T00:06:58;10.32;;;8.13;;
54125;SDS011;40360;52.992;6.796;2023-04-01T00:09:25;11.27;;;8.40;;
54125;SDS011;40360;52.992;6.796;2023-04-01T00:11:51;9.32;;;8.00;;
54125;SDS011;40360;52.992;6.796;2023-04-01T00:14:16;11.05;;;8.20;;
54125;SDS011;40360;52.992;6.796;2023-04-01T00:16:42;11.82;;;8.05;;
54125;SDS011;40360;52.992;6.796;2023-04-01T00:19:08;12.35;;;7.80;;
54125;SDS011;40360;52.992;6.796;2023-04-01T00:21:34;9.40;;;7.68;;
54125;SDS011;40360;52.992;6.796;2023-04-01T00:24:00;10.95;;;9.02;;
54125;SDS011;40360;52.992;6.796;2023-04-01T00:26:26;10.55;;;7.82;;
54125;SDS011;40360;52.992;6.796;2023-04-01T00:28:52;9.23;;;7.25;;
54125;SDS011;40360;52.992;6.796;2023-04-01T00:31:18;9.95;;;7.18;;
54125;SDS011;40360;52.992;6.796;2023-04-01T00:33:43;9.10;;;7.65;;
54125;SDS011;40360;52.992;6.796;2023-04-01T00:36:10;12.90;;;9.00;;
54125;SDS011;40360;52.992;6.796;2023-04-01T00:38:38;9.95;;;7.60;;
54125;SDS011;40360;52.992;6.796;2023-04-01T00:41:04;12.70;;;9.15;;
54125;SDS011;40360;52.992;6.796;2023-04-01T00:43:30;14.98;;;8.93;;
54125;SDS011;40360;52.992;6.796;2023-04-01T00:45:56;10.70;;;7.55;;
54125;SDS011;40360;52.992;6.796;2023-04-01T00:48:23;15.38;;;8.80;;
54125;SDS011;40360;52.992;6.796;2023-04-01T00:50:55;10.55;;;8.00;;
54125;SDS011;40360;52.992;6.796;2023-04-01T00:53:25;15.57;;;9.52;;
54125;SDS011;40360;52.992;6.796;2023-04-01T00:55:58;11.63;;;7.70;;
54125;SDS011;40360;52.992;6.796;2023-04-01T00:58:29;13.02;;;8.90;;
54125;SDS011;40360;52.992;6.796;2023-04-01T01:00:58;11.45;;;8.30;;
54125;SDS011;40360;52.992;6.796;2023-04-01T01:03:24;11.65;;;8.40;;
54125;SDS011;40360;52.992;6.796;2023-04-01T01:06:10;13.40;;;8.85;;
54125;SDS011;40360;52.992;6.796;2023-04-01T01:11:28;12.57;;;8.38;;
54125;SDS011;40360;52.992;6.796;2023-04-01T01:14:05;11.50;;;8.15;;
54125;SDS011;40360;52.992;6.796;2023-04-01T01:16:44;13.40;;;8.35;;
54125;SDS011;40360;52.992;6.796;2023-04-01T01:31:19;10.55;;;7.65;;
54125;SDS011;40360;52.992;6.796;2023-04-01T01:34:03;10.52;;;7.55;;
54125;SDS011;40360;52.992;6.796;2023-04-01T01:36:40;9.88;;;7.15;;
54125;SDS011;40360;52.992;6.796;2023-04-01T01:39:10;10.25;;;8.52;;
54125;SDS011;40360;52.992;6.796;2023-04-01T01:41:38;9.23;;;7.85;;
54125;SDS011;40360;52.992;6.796;2023-04-01T01:44:06;10.23;;;7.45;;
54125;SDS011;40360;52.992;6.796;2023-04-01T01:46:34;10.02;;;8.73;;
54125;SDS011;40360;52.992;6.796;2023-04-01T01:49:03;10.50;;;7.50;;
54125;SDS011;40360;52.992;6.796;2023-04-01T01:51:31;9.60;;;7.35;;
54125;SDS011;40360;52.992;6.796;2023-04-01T01:53:57;11.52;;;7.80;;
54125;SDS011;40360;52.992;6.796;2023-04-01T01:56:23;8.65;;;7.50;;
54125;SDS011;40360;52.992;6.796;2023-04-01T01:58:54;11.73;;;8.40;;
54125;SDS011;40360;52.992;6.796;2023-04-01T02:01:25;10.90;;;7.95;;
54125;SDS011;40360;52.992;6.796;2023-04-01T02:03:53;14.18;;;7.10;;
54125;SDS011;40360;52.992;6.796;2023-04-01T02:06:21;10.75;;;8.27;;
54125;SDS011;40360;52.992;6.796;2023-04-01T02:09:02;9.38;;;7.38;;
54125;SDS011;40360;52.992;6.796;2023-04-01T02:14:13;10.70;;;8.00;;
54125;SDS011;40360;52.992;6.796;2023-04-01T02:17:03;8.13;;;6.45;;
54125;SDS011;40360;52.992;6.796;2023-04-01T02:19:36;10.43;;;7.05;;
54125;SDS011;40360;52.992;6.796;2023-04-01T02:22:11;10.02;;;6.35;;
54125;SDS011;40360;52.992;6.796;2023-04-01T02:24:41;8.38;;;6.22;;
54125;SDS011;40360;52.992;6.796;2023-04-01T02:27:09;8.77;;;6.38;;
54125;SDS011;40360;52.992;6.796;2023-04-01T02:29:35;6.70;;;5.07;;
54125;SDS011;40360;52.992;6.796;2023-04-01T02:32:01;7.30;;;5.35;;
54125;SDS011;40360;52.992;6.796;2023-04-01T02:34:28;7.20;;;5.03;;
54125;SDS011;40360;52.992;6.796;2023-04-01T02:36:54;9.13;;;5.70;;
54125;SDS011;40360;52.992;6.796;2023-04-01T02:39:21;8.38;;;6.22;;
54125;SDS011;40360;52.992;6.796;2023-04-01T02:41:47;9.43;;;6.53;;
54125;SDS011;40360;52.992;6.796;2023-04-01T02:44:14;7.32;;;5.93;;
54125;SDS011;40360;52.992;6.796;2023-04-01T02:46:40;8.50;;;6.38;;
54125;SDS011;40360;52.992;6.796;2023-04-01T02:49:06;8.25;;;6.75;;
54125;SDS011;40360;52.992;6.796;2023-04-01T02:51:32;9.48;;;6.57;;
54125;SDS011;40360;52.992;6.796;2023-04-01T02:53:58;8.65;;;6.97;;
54125;SDS011;40360;52.992;6.796;2023-04-01T02:56:23;6.95;;;5.60;;
54125;SDS011;40360;52.992;6.796;2023-04-01T02:58:49;7.18;;;5.05;;
54125;SDS011;40360;52.992;6.796;2023-04-01T03:01:15;5.57;;;3.90;;
54125;SDS011;40360;52.992;6.796;2023-04-01T03:03:41;7.15;;;4.50;;
54125;SDS011;40360;52.992;6.796;2023-04-01T03:06:11;9.00;;;6.50;;
54125;SDS011;40360;52.992;6.796;2023-04-01T03:08:38;9.63;;;7.32;;
54125;SDS011;40360;52.992;6.796;2023-04-01T03:11:04;9.32;;;7.60;;
54125;SDS011;40360;52.992;6.796;2023-04-01T03:13:31;12.05;;;8.40;;
54125;SDS011;40360;52.992;6.796;2023-04-01T03:15:57;10.23;;;8.40;;
54125;SDS011;40360;52.992;6.796;2023-04-01T03:18:23;14.25;;;9.45;;
54125;SDS011;40360;52.992;6.796;2023-04-01T03:20:48;11.60;;;8.35;;
54125;SDS011;40360;52.992;6.796;2023-04-01T03:23:14;11.50;;;8.85;;
54125;SDS011;40360;52.992;6.796;2023-04-01T03:25:42;13.07;;;9.63;;
54125;SDS011;40360;52.992;6.796;2023-04-01T03:28:08;12.05;;;9.38;;
54125;SDS011;40360;52.992;6.796;2023-04-01T03:30:33;14.68;;;9.90;;
54125;SDS011;40360;52.992;6.796;2023-04-01T03:32:59;13.68;;;9.70;;
54125;SDS011;40360;52.992;6.796;2023-04-01T03:35:25;12.13;;;9.38;;
54125;SDS011;40360;52.992;6.796;2023-04-01T03:37:52;11.90;;;9.55;;
54125;SDS011;40360;52.992;6.796;2023-04-01T03:40:18;17.55;;;10.55;;
54125;SDS011;40360;52.992;6.796;2023-04-01T03:42:44;13.77;;;9.38;;
54125;SDS011;40360;52.992;6.796;2023-04-01T03:45:10;13.88;;;10.88;;
54125;SDS011;40360;52.992;6.796;2023-04-01T03:47:37;18.10;;;11.48;;
54125;SDS011;40360;52.992;6.796;2023-04-01T03:50:04;16.42;;;10.23;;
54125;SDS011;40360;52.992;6.796;2023-04-01T03:52:30;12.98;;;9.98;;
54125;SDS011;40360;52.992;6.796;2023-04-01T03:54:56;14.40;;;10.60;;
54125;SDS011;40360;52.992;6.796;2023-04-01T03:57:21;13.98;;;10.82;;
54125;SDS011;40360;52.992;6.796;2023-04-01T03:59:47;14.27;;;10.70;;
54125;SDS011;40360;52.992;6.796;2023-04-01T04:02:12;15.50;;;11.57;;
54125;SDS011;40360;52.992;6.796;2023-04-01T04:04:38;14.05;;;10.95;;
54125;SDS011;40360;52.992;6.796;2023-04-01T04:07:04;16.05;;;11.45;;
54125;SDS011;40360;52.992;6.796;2023-04-01T04:09:30;13.35;;;10.48;;
54125;SDS011;40360;52.992;6.796;2023-04-01T04:11:56;17.50;;;11.85;;
54125;SDS011;40360;52.992;6.796;2023-04-01T04:14:22;12.57;;;10.32;;
54125;SDS011;40360;52.992;6.796;2023-04-01T04:16:48;17.38;;;12.20;;
54125;SDS011;40360;52.992;6.796;2023-04-01T04:19:14;14.85;;;11.52;;
54125;SDS011;40360;52.992;6.796;2023-04-01T04:21:41;16.33;;;11.65;;
54125;SDS011;40360;52.992;6.796;2023-04-01T04:24:06;16.60;;;11.95;;
54125;SDS011;40360;52.992;6.796;2023-04-01T04:26:32;15.55;;;10.82;;
54125;SDS011;40360;52.992;6.796;2023-04-01T04:28:58;16.63;;;12.65;;
54125;SDS011;40360;52.992;6.796;2023-04-01T04:31:24;13.02;;;11.13;;
54125;SDS011;40360;52.992;6.796;2023-04-01T04:33:51;21.70;;;13.32;;
54125;SDS011;40360;52.992;6.796;2023-04-01T04:36:17;18.00;;;11.25;;
54125;SDS011;40360;52.992;6.796;2023-04-01T04:38:44;18.38;;;12.85;;
54125;SDS011;40360;52.992;6.796;2023-04-01T04:41:11;20.95;;;14.00;;
54125;SDS011;40360;52.992;6.796;2023-04-01T04:43:38;17.90;;;12.75;;
54125;SDS011;40360;52.992;6.796;2023-04-01T04:46:08;20.20;;;13.27;;
54125;SDS011;40360;52.992;6.796;2023-04-01T04:48:34;17.10;;;13.15;;
54125;SDS011;40360;52.992;6.796;2023-04-01T04:51:00;19.67;;;13.35;;
54125;SDS011;40360;52.992;6.796;2023-04-01T04:53:27;17.63;;;13.65;;
54125;SDS011;40360;52.992;6.796;2023-04-01T04:55:53;16.05;;;12.63;;
54125;SDS011;40360;52.992;6.796;2023-04-01T04:58:19;20.48;;;14.52;;
54125;SDS011;40360;52.992;6.796;2023-04-01T05:00:45;18.08;;;13.27;;
54125;SDS011;40360;52.992;6.796;2023-04-01T05:03:11;15.73;;;13.05;;
54125;SDS011;40360;52.992;6.796;2023-04-01T05:05:37;17.38;;;13.30;;
54125;SDS011;40360;52.992;6.796;2023-04-01T05:08:03;19.08;;;13.60;;
54125;SDS011;40360;52.992;6.796;2023-04-01T05:10:29;18.95;;;12.80;;
54125;SDS011;40360;52.992;6.796;2023-04-01T05:12:55;14.80;;;11.13;;
54125;SDS011;40360;52.992;6.796;2023-04-01T05:15:21;14.52;;;10.57;;
54125;SDS011;40360;52.992;6.796;2023-04-01T05:17:47;13.88;;;9.80;;
54125;SDS011;40360;52.992;6.796;2023-04-01T05:20:13;13.48;;;9.57;;
54125;SDS011;40360;52.992;6.796;2023-04-01T05:22:39;12.38;;;8.90;;
54125;SDS011;40360;52.992;6.796;2023-04-01T05:25:05;13.23;;;8.45;;
54125;SDS011;40360;52.992;6.796;2023-04-01T05:27:31;13.93;;;8.88;;
54125;SDS011;40360;52.992;6.796;2023-04-01T05:29:57;10.93;;;8.70;;
54125;SDS011;40360;52.992;6.796;2023-04-01T05:32:24;12.50;;;9.02;;
54125;SDS011;40360;52.992;6.796;2023-04-01T05:34:50;14.63;;;9.63;;
54125;SDS011;40360;52.992;6.796;2023-04-01T05:37:18;10.18;;;8.15;;
54125;SDS011;40360;52.992;6.796;2023-04-01T05:39:44;11.18;;;8.13;;
54125;SDS011;40360;52.992;6.796;2023-04-01T05:42:09;10.32;;;8.50;;
54125;SDS011;40360;52.992;6.796;2023-04-01T06:01:07;13.23;;;9.90;;
54125;SDS011;40360;52.992;6.796;2023-04-01T06:03:36;16.58;;;11.98;;
54125;SDS011;40360;52.992;6.796;2023-04-01T06:06:02;17.50;;;12.43;;
54125;SDS011;40360;52.992;6.796;2023-04-01T06:08:29;18.70;;;13.50;;
54125;SDS011;40360;52.992;6.796;2023-04-01T06:14:11;21.58;;;15.15;;
54125;SDS011;40360;52.992;6.796;2023-04-01T06:19:13;21.75;;;15.73;;
54125;SDS011;40360;52.992;6.796;2023-04-01T06:32:22;23.80;;;17.00;;
54125;SDS011;40360;52.992;6.796;2023-04-01T06:40:22;24.48;;;17.75;;
54125;SDS011;40360;52.992;6.796;2023-04-01T06:53:30;25.15;;;17.33;;
54125;SDS011;40360;52.992;6.796;2023-04-01T06:56:02;22.83;;;17.15;;
54125;SDS011;40360;52.992;6.796;2023-04-01T06:58:39;23.08;;;17.55;;
54125;SDS011;40360;52.992;6.796;2023-04-01T07:01:13;25.15;;;18.02;;
54125;SDS011;40360;52.992;6.796;2023-04-01T07:03:43;24.85;;;17.40;;
54125;SDS011;40360;52.992;6.796;2023-04-01T07:06:17;23.40;;;16.63;;
54125;SDS011;40360;52.992;6.796;2023-04-01T07:08:51;20.50;;;16.92;;
54125;SDS011;40360;52.992;6.796;2023-04-01T07:11:26;24.55;;;16.45;;
54125;SDS011;40360;52.992;6.796;2023-04-01T07:14:58;22.38;;;16.67;;
54125;SDS011;40360;52.992;6.796;2023-04-01T07:17:04;21.23;;;17.23;;
54125;SDS011;40360;52.992;6.796;2023-04-01T07:22:05;22.15;;;15.77;;
54125;SDS011;40360;52.992;6.796;2023-04-01T07:24:43;19.58;;;15.07;;
54125;SDS011;40360;52.992;6.796;2023-04-01T07:27:11;19.40;;;15.95;;
54125;SDS011;40360;52.992;6.796;2023-04-01T07:29:38;19.58;;;14.52;;
54125;SDS011;40360;52.992;6.796;2023-04-01T07:37:37;16.50;;;13.10;;
54125;SDS011;40360;52.992;6.796;2023-04-01T07:40:31;15.95;;;12.98;;
54125;SDS011;40360;52.992;6.796;2023-04-01T07:43:12;18.55;;;14.95;;
54125;SDS011;40360;52.992;6.796;2023-04-01T07:46:03;17.42;;;13.68;;
54125;SDS011;40360;52.992;6.796;2023-04-01T07:49:03;18.05;;;14.20;;
54125;SDS011;40360;52.992;6.796;2023-04-01T07:57:38;16.60;;;12.60;;
54125;SDS011;40360;52.992;6.796;2023-04-01T08:05:29;12.52;;;10.55;;
54125;SDS011;40360;52.992;6.796;2023-04-01T08:10:56;10.38;;;7.72;;
54125;SDS011;40360;52.992;6.796;2023-04-01T08:21:57;9.40;;;7.75;;
54125;SDS011;40360;52.992;6.796;2023-04-01T08:29:59;10.18;;;8.25;;
54125;SDS011;40360;52.992;6.796;2023-04-01T08:32:32;10.77;;;8.88;;
54125;SDS011;40360;52.992;6.796;2023-04-01T08:35:16;11.30;;;8.95;;
54125;SDS011;40360;52.992;6.796;2023-04-01T08:37:54;9.68;;;8.13;;
54125;SDS011;40360;52.992;6.796;2023-04-01T08:46:17;13.25;;;9.95;;
54125;SDS011;40360;52.992;6.796;2023-04-01T08:49:11;13.57;;;10.23;;
54125;SDS011;40360;52.992;6.796;2023-04-01T08:57:56;15.20;;;11.85;;
54125;SDS011;40360;52.992;6.796;2023-04-01T09:03:43;14.68;;;11.55;;
54125;SDS011;40360;52.992;6.796;2023-04-01T09:06:29;14.63;;;12.07;;
54125;SDS011;40360;52.992;6.796;2023-04-01T09:09:21;13.23;;;11.70;;
54125;SDS011;40360;52.992;6.796;2023-04-01T09:14:40;18.10;;;10.85;;
54125;SDS011;40360;52.992;6.796;2023-04-01T09:28:42;13.02;;;11.02;;
54125;SDS011;40360;52.992;6.796;2023-04-01T09:31:25;11.35;;;9.98;;
54125;SDS011;40360;52.992;6.796;2023-04-01T09:34:26;12.80;;;11.15;;
54125;SDS011;40360;52.992;6.796;2023-04-01T09:39:31;13.30;;;10.63;;
54125;SDS011;40360;52.992;6.796;2023-04-01T09:42:15;13.88;;;11.68;;
54125;SDS011;40360;52.992;6.796;2023-04-01T09:45:15;13.13;;;11.43;;
54125;SDS011;40360;52.992;6.796;2023-04-01T09:48:29;12.55;;;11.18;;
54125;SDS011;40360;52.992;6.796;2023-04-01T09:53:36;15.30;;;11.98;;
54125;SDS011;40360;52.992;6.796;2023-04-01T09:58:42;12.63;;;10.30;;
54125;SDS011;40360;52.992;6.796;2023-04-01T10:07:57;7.15;;;6.45;;
54125;SDS011;40360;52.992;6.796;2023-04-01T10:16:12;6.30;;;5.57;;
54125;SDS011;40360;52.992;6.796;2023-04-01T10:19:12;7.20;;;5.80;;
54125;SDS011;40360;52.992;6.796;2023-04-01T10:27:16;7.25;;;6.10;;
54125;SDS011;40360;52.992;6.796;2023-04-01T10:47:33;5.95;;;4.68;;
54125;SDS011;40360;52.992;6.796;2023-04-01T10:55:23;5.78;;;4.65;;
54125;SDS011;40360;52.992;6.796;2023-04-01T11:18:04;4.00;;;3.50;;
54125;SDS011;40360;52.992;6.796;2023-04-01T11:26:37;5.70;;;3.50;;
54125;SDS011;40360;52.992;6.796;2023-04-01T11:29:28;4.20;;;3.80;;
54125;SDS011;40360;52.992;6.796;2023-04-01T11:42:34;4.53;;;4.03;;
54125;SDS011;40360;52.992;6.796;2023-04-01T11:53:44;4.03;;;3.42;;
54125;SDS011;40360;52.992;6.796;2023-04-01T12:04:51;3.28;;;2.88;;
54125;SDS011;40360;52.992;6.796;2023-04-01T12:18:59;3.80;;;3.30;;
54125;SDS011;40360;52.992;6.796;2023-04-01T12:21:35;2.90;;;2.60;;
54125;SDS011;40360;52.992;6.796;2023-04-01T12:32:24;3.00;;;2.70;;
54125;SDS011;40360;52.992;6.796;2023-04-01T12:34:53;3.92;;;2.78;;
54125;SDS011;40360;52.992;6.796;2023-04-01T12:51:41;5.20;;;2.92;;
54125;SDS011;40360;52.992;6.796;2023-04-01T13:07:31;4.07;;;3.67;;
54125;SDS011;40360;52.992;6.796;2023-04-01T13:10:13;4.38;;;3.67;;
54125;SDS011;40360;52.992;6.796;2023-04-01T13:21:21;3.38;;;2.50;;
54125;SDS011;40360;52.992;6.796;2023-04-01T13:24:35;2.72;;;2.33;;
54125;SDS011;40360;52.992;6.796;2023-04-01T13:29:36;2.70;;;2.10;;
54125;SDS011;40360;52.992;6.796;2023-04-01T13:32:27;2.95;;;2.63;;
54125;SDS011;40360;52.992;6.796;2023-04-01T13:38:16;2.92;;;2.50;;
54125;SDS011;40360;52.992;6.796;2023-04-01T13:46:09;2.53;;;2.30;;
54125;SDS011;40360;52.992;6.796;2023-04-01T13:49:46;2.50;;;2.30;;
54125;SDS011;40360;52.992;6.796;2023-04-01T13:51:55;2.83;;;2.53;;
54125;SDS011;40360;52.992;6.796;2023-04-01T13:57:38;2.08;;;1.88;;
54125;SDS011;40360;52.992;6.796;2023-04-01T14:00:29;1.75;;;1.65;;
54125;SDS011;40360;52.992;6.796;2023-04-01T14:14:21;3.70;;;3.08;;
54125;SDS011;40360;52.992;6.796;2023-04-01T14:17:00;3.22;;;2.33;;
54125;SDS011;40360;52.992;6.796;2023-04-01T14:19:53;2.22;;;1.88;;
54125;SDS011;40360;52.992;6.796;2023-04-01T14:28:53;2.67;;;2.28;;
54125;SDS011;40360;52.992;6.796;2023-04-01T14:48:17;2.95;;;2.38;;
54125;SDS011;40360;52.992;6.796;2023-04-01T14:51:23;2.90;;;2.15;;
54125;SDS011;40360;52.992;6.796;2023-04-01T14:56:43;2.92;;;2.22;;
54125;SDS011;40360;52.992;6.796;2023-04-01T14:59:30;2.10;;;1.90;;
54125;SDS011;40360;52.992;6.796;2023-04-01T15:01:58;3.03;;;1.88;;
54125;SDS011;40360;52.992;6.796;2023-04-01T15:04:32;2.45;;;2.08;;
54125;SDS011;40360;52.992;6.796;2023-04-01T15:07:33;2.03;;;1.83;;
54125;SDS011;40360;52.992;6.796;2023-04-01T15:10:10;2.60;;;2.00;;
54125;SDS011;40360;52.992;6.796;2023-04-01T15:13:12;2.13;;;1.88;;
54125;SDS011;40360;52.992;6.796;2023-04-01T15:16:20;2.50;;;2.00;;
54125;SDS011;40360;52.992;6.796;2023-04-01T15:24:24;2.20;;;2.00;;
54125;SDS011;40360;52.992;6.796;2023-04-01T15:27:07;1.95;;;1.77;;
54125;SDS011;40360;52.992;6.796;2023-04-01T15:29:53;3.53;;;2.00;;
54125;SDS011;40360;52.992;6.796;2023-04-01T15:38:40;2.05;;;1.85;;
54125;SDS011;40360;52.992;6.796;2023-04-01T15:41:16;2.08;;;1.85;;
54125;SDS011;40360;52.992;6.796;2023-04-01T15:43:50;2.03;;;1.75;;
54125;SDS011;40360;52.992;6.796;2023-04-01T15:49:32;2.78;;;2.20;;
54125;SDS011;40360;52.992;6.796;2023-04-01T15:55:30;2.78;;;2.53;;
54125;SDS011;40360;52.992;6.796;2023-04-01T15:58:17;3.30;;;2.92;;
54125;SDS011;40360;52.992;6.796;2023-04-01T16:09:43;4.20;;;3.80;;
54125;SDS011;40360;52.992;6.796;2023-04-01T16:12:31;6.25;;;4.93;;
54125;SDS011;40360;52.992;6.796;2023-04-01T16:20:46;5.68;;;4.30;;
54125;SDS011;40360;52.992;6.796;2023-04-01T16:26:05;5.40;;;4.90;;
54125;SDS011;40360;52.992;6.796;2023-04-01T16:34:47;6.95;;;4.88;;
54125;SDS011;40360;52.992;6.796;2023-04-01T16:37:19;7.55;;;5.05;;
54125;SDS011;40360;52.992;6.796;2023-04-01T16:42:51;7.00;;;4.70;;
54125;SDS011;40360;52.992;6.796;2023-04-01T16:45:26;5.38;;;4.60;;
54125;SDS011;40360;52.992;6.796;2023-04-01T16:50:43;5.13;;;4.43;;
54125;SDS011;40360;52.992;6.796;2023-04-01T16:57:02;5.20;;;4.45;;
54125;SDS011;40360;52.992;6.796;2023-04-01T17:04:37;5.88;;;4.88;;
54125;SDS011;40360;52.992;6.796;2023-04-01T17:12:47;6.68;;;5.40;;
54125;SDS011;40360;52.992;6.796;2023-04-01T17:15:46;9.10;;;5.60;;
54125;SDS011;40360;52.992;6.796;2023-04-01T17:18:49;7.30;;;6.15;;
54125;SDS011;40360;52.992;6.796;2023-04-01T17:24:22;8.43;;;5.95;;
54125;SDS011;40360;52.992;6.796;2023-04-01T17:30:05;8.95;;;6.93;;
54125;SDS011;40360;52.992;6.796;2023-04-01T17:35:40;7.97;;;5.97;;
54125;SDS011;40360;52.992;6.796;2023-04-01T17:49:28;7.18;;;6.38;;
54125;SDS011;40360;52.992;6.796;2023-04-01T17:52:09;8.77;;;6.13;;
54125;SDS011;40360;52.992;6.796;2023-04-01T17:54:50;9.30;;;5.88;;
54125;SDS011;40360;52.992;6.796;2023-04-01T17:57:26;7.93;;;5.63;;
54125;SDS011;40360;52.992;6.796;2023-04-01T18:00:26;11.27;;;6.43;;
54125;SDS011;40360;52.992;6.796;2023-04-01T18:06:02;7.63;;;6.10;;
54125;SDS011;40360;52.992;6.796;2023-04-01T18:19:42;9.68;;;6.65;;
54125;SDS011;40360;52.992;6.796;2023-04-01T18:22:34;10.95;;;7.28;;
54125;SDS011;40360;52.992;6.796;2023-04-01T18:30:45;11.02;;;7.57;;
54125;SDS011;40360;52.992;6.796;2023-04-01T18:44:55;10.00;;;7.75;;
54125;SDS011;40360;52.992;6.796;2023-04-01T19:04:35;11.40;;;7.88;;
54125;SDS011;40360;52.992;6.796;2023-04-01T19:10:07;8.65;;;6.45;;
54125;SDS011;40360;52.992;6.796;2023-04-01T19:12:46;13.63;;;8.10;;
54125;SDS011;40360;52.992;6.796;2023-04-01T19:15:30;10.18;;;6.97;;
54125;SDS011;40360;52.992;6.796;2023-04-01T19:20:53;14.30;;;8.25;;
54125;SDS011;40360;52.992;6.796;2023-04-01T19:24:14;9.82;;;7.43;;
54125;SDS011;40360;52.992;6.796;2023-04-01T19:32:13;11.55;;;7.35;;
54125;SDS011;40360;52.992;6.796;2023-04-01T19:35:09;10.60;;;7.10;;
54125;SDS011;40360;52.992;6.796;2023-04-01T19:40:47;12.32;;;7.47;;
54125;SDS011;40360;52.992;6.796;2023-04-01T19:49:14;12.23;;;6.85;;
54125;SDS011;40360;52.992;6.796;2023-04-01T19:52:11;15.93;;;8.35;;
54125;SDS011;40360;52.992;6.796;2023-04-01T19:54:58;13.00;;;8.20;;
54125;SDS011;40360;52.992;6.796;2023-04-01T20:00:31;12.80;;;8.65;;
54125;SDS011;40360;52.992;6.796;2023-04-01T20:03:09;12.32;;;7.82;;
54125;SDS011;40360;52.992;6.796;2023-04-01T20:06:03;12.15;;;8.60;;
54125;SDS011;40360;52.992;6.796;2023-04-01T20:08:45;10.02;;;8.10;;
54125;SDS011;40360;52.992;6.796;2023-04-01T20:11:21;13.57;;;8.50;;
54125;SDS011;40360;52.992;6.796;2023-04-01T20:19:35;14.20;;;9.00;;
54125;SDS011;40360;52.992;6.796;2023-04-01T20:22:16;11.35;;;8.75;;
54125;SDS011;40360;52.992;6.796;2023-04-01T20:24:50;11.45;;;8.55;;
54125;SDS011;40360;52.992;6.796;2023-04-01T20:27:19;12.85;;;8.15;;
54125;SDS011;40360;52.992;6.796;2023-04-01T20:35:14;11.13;;;7.78;;
54125;SDS011;40360;52.992;6.796;2023-04-01T20:37:49;11.82;;;8.48;;
54125;SDS011;40360;52.992;6.796;2023-04-01T20:40:37;12.38;;;8.50;;
54125;SDS011;40360;52.992;6.796;2023-04-01T20:51:28;10.35;;;8.13;;
54125;SDS011;40360;52.992;6.796;2023-04-01T21:21:46;10.32;;;6.88;;
54125;SDS011;40360;52.992;6.796;2023-04-01T21:43:07;12.13;;;6.50;;
54125;SDS011;40360;52.992;6.796;2023-04-01T21:49:08;9.73;;;6.82;;
54125;SDS011;40360;52.992;6.796;2023-04-01T21:52:10;16.25;;;8.25;;
54125;SDS011;40360;52.992;6.796;2023-04-01T21:57:56;10.82;;;6.53;;
54125;SDS011;40360;52.992;6.796;2023-04-01T22:00:24;11.88;;;6.95;;
54125;SDS011;40360;52.992;6.796;2023-04-01T22:05:46;9.40;;;6.55;;
54125;SDS011;40360;52.992;6.796;2023-04-01T22:08:24;8.38;;;6.18;;
54125;SDS011;40360;52.992;6.796;2023-04-01T22:14:13;11.88;;;6.97;;
54125;SDS011;40360;52.992;6.796;2023-04-01T22:17:03;9.18;;;6.25;;
54125;SDS011;40360;52.992;6.796;2023-04-01T22:19:56;13.00;;;6.95;;
54125;SDS011;40360;52.992;6.796;2023-04-01T22:22:38;13.27;;;7.28;;
54125;SDS011;40360;52.992;6.796;2023-04-01T22:25:15;9.90;;;6.65;;
54125;SDS011;40360;52.992;6.796;2023-04-01T22:31:11;9.23;;;6.43;;
54125;SDS011;40360;52.992;6.796;2023-04-01T22:33:34;10.80;;;7.22;;
54125;SDS011;40360;52.992;6.796;2023-04-01T22:42:01;9.80;;;5.75;;
54125;SDS011;40360;52.992;6.796;2023-04-01T22:44:48;10.18;;;6.15;;
54125;SDS011;40360;52.992;6.796;2023-04-01T22:49:47;9.25;;;5.82;;
54125;SDS011;40360;52.992;6.796;2023-04-01T22:55:10;8.95;;;6.45;;
54125;SDS011;40360;52.992;6.796;2023-04-01T22:57:52;10.75;;;6.78;;
54125;SDS011;40360;52.992;6.796;2023-04-01T23:00:41;10.65;;;5.80;;
54125;SDS011;40360;52.992;6.796;2023-04-01T23:05:39;11.50;;;6.28;;
54125;SDS011;40360;52.992;6.796;2023-04-01T23:10:56;10.75;;;6.38;;
54125;SDS011;40360;52.992;6.796;2023-04-01T23:13:36;10.18;;;5.97;;
54125;SDS011;40360;52.992;6.796;2023-04-01T23:16:06;10.70;;;6.13;;
54125;SDS011;40360;52.992;6.796;2023-04-01T23:26:52;10.43;;;6.05;;
54125;SDS011;40360;52.992;6.796;2023-04-01T23:29:28;10.68;;;6.00;;
54125;SDS011;40360;52.992;6.796;2023-04-01T23:34:28;7.28;;;5.88;;
54125;SDS011;40360;52.992;6.796;2023-04-01T23:37:04;12.00;;;6.45;;
54125;SDS011;40360;52.992;6.796;2023-04-01T23:42:23;11.32;;;5.80;;
54125;SDS011;40360;52.992;6.796;2023-04-01T23:45:04;9.38;;;5.72;;
54125;SDS011;40360;52.992;6.796;2023-04-01T23:47:38;9.15;;;5.45;;
54125;SDS011;40360;52.992;6.796;2023-04-01T23:52:43;8.85;;;5.45;;
54125;SDS011;40360;52.992;6.796;2023-04-01T23:55:21;8.68;;;4.88;;
